ilmateenistus.ee keskkonnaagentuur.ee
EETN Tallinna lennuväli
FTEO31 EETN 241700
TAF EETN 241700Z 2418/2518 03008KT 8000 SCT009 BKN013 TEMPO 2418/2424
    2000 SN BKN006 TEMPO 2500/2507 1000 SN BR BKN004=

METAR EETN 241750Z 04006KT 010V090 9999 FEW015 BKN021 M11/M15 Q1036 R08/420295 NOSIG=
Tallinna lennuväli
EEKA Kärdla lennuväli
METAR EEKA 241750Z NIL=
Kärdla lennuväli
EEKE Kuressaare lennuväli
METAR EEKE 241750Z AUTO 03007KT 9999NDV NCD M13/M14 Q1036=
Kuressaare lennuväli
EEPU Pärnu lennuväli
METAR EEPU 241750Z NIL=
Pärnu lennuväli
EETU Tartu lennuväli
METAR EETU 241750Z AUTO 02008KT 9999 NCD M15/M19 Q1034=
Tartu lennuväli
EEEI Ämari lennuväli
METAR EEEI 241750Z AUTO 04004KT 9999 -SN SCT014 OVC021 M14/M15 Q1036 R06/290095=
Ämari lennuväli